Time;durP1;ratioP1;P1;durP2;ratioP2;P2;SDS_P1;SDS_P2;PMS_P1;PMS_P2;Temp;Humidity;BMP_temperature;BMP_pressure;BME280_temperature;BME280_humidity;BME280_pressure;Samples;Min_cycle;Max_cycle;Signal;HPM_P1;HPM_P2
2023/01/25 00:01:31;;;;;;;11.33;8.80;;;0.90;90.50;;;;;;4972052;28;20547;-51
2023/01/25 00:03:58;;;;;;;14.20;9.90;;;0.90;92.50;;;;;;4972658;28;20595;-53
2023/01/25 00:06:25;;;;;;;13.47;9.90;;;0.90;94.60;;;;;;4984157;28;20463;-53
2023/01/25 00:08:51;;;;;;;11.03;8.73;;;0.90;94.40;;;;;;4989318;28;20487;-52
2023/01/25 00:11:20;;;;;;;12.97;9.33;;;0.90;90.50;;;;;;4992922;28;20475;-52
2023/01/25 00:13:46;;;;;;;11.60;9.17;;;0.90;85.90;;;;;;4986101;28;20472;-52
2023/01/25 00:16:13;;;;;;;12.60;9.40;;;0.90;84.50;;;;;;4987862;28;20457;-57
2023/01/25 00:18:39;;;;;;;12.63;9.00;;;0.90;82.50;;;;;;4970646;28;20510;-51
2023/01/25 00:21:13;;;;;;;11.07;9.33;;;0.90;85.40;;;;;;4970910;28;20559;-53
2023/01/25 00:23:39;;;;;;;12.87;8.97;;;0.90;89.20;;;;;;4972398;28;21041;-52
2023/01/25 00:26:06;;;;;;;14.23;10.50;;;0.90;95.10;;;;;;4969500;28;20966;-52
2023/01/25 00:28:34;;;;;;;13.73;10.20;;;0.90;99.90;;;;;;4972593;28;20558;-53
2023/01/25 00:31:01;;;;;;;14.60;10.00;;;0.90;97.30;;;;;;4964694;28;20699;-52
2023/01/25 00:33:43;;;;;;;14.40;11.53;;;0.90;97.70;;;;;;4972902;28;20516;-51
2023/01/25 00:36:34;;;;;;;16.67;10.80;;;1.00;97.90;;;;;;4974348;28;20547;-52
2023/01/25 00:39:01;;;;;;;15.50;10.27;;;1.00;91.90;;;;;;4967770;28;20556;-52
2023/01/25 00:41:27;;;;;;;15.33;10.60;;;0.90;88.30;;;;;;4965837;28;20496;-51
2023/01/25 00:43:55;;;;;;;17.30;10.97;;;0.90;85.30;;;;;;4967997;28;20583;-52
2023/01/25 00:46:22;;;;;;;13.43;9.93;;;1.00;80.60;;;;;;4969586;28;20504;-52
2023/01/25 00:48:49;;;;;;;16.17;11.80;;;0.90;86.50;;;;;;4974281;28;20466;-51
2023/01/25 00:51:16;;;;;;;13.83;9.93;;;0.90;90.00;;;;;;4972111;28;20503;-51
2023/01/25 00:53:42;;;;;;;14.40;8.10;;;0.90;89.30;;;;;;4971830;28;20994;-52
2023/01/25 00:56:09;;;;;;;14.13;9.17;;;0.90;95.40;;;;;;4967245;28;20530;-51
2023/01/25 00:58:35;;;;;;;10.30;8.90;;;0.90;91.90;;;;;;4967452;28;20522;-53
2023/01/25 01:01:04;;;;;;;10.43;9.30;;;0.90;93.00;;;;;;4971032;28;20468;-51
2023/01/25 01:03:30;;;;;;;16.10;10.27;;;0.90;85.80;;;;;;4969144;28;20488;-52
2023/01/25 01:06:02;;;;;;;14.20;10.40;;;0.90;86.70;;;;;;4972796;28;20504;-52
2023/01/25 01:08:28;;;;;;;13.97;9.90;;;0.90;84.50;;;;;;4971774;28;21021;-52
2023/01/25 01:10:59;;;;;;;15.87;10.30;;;0.90;83.20;;;;;;4973720;28;20511;-52
2023/01/25 01:13:26;;;;;;;15.43;9.93;;;0.90;81.10;;;;;;4972349;28;20983;-52
2023/01/25 01:15:52;;;;;;;15.00;11.43;;;1.00;81.70;;;;;;4965499;28;20492;-51
2023/01/25 01:18:20;;;;;;;15.40;11.00;;;0.90;88.70;;;;;;4968129;28;20609;-51
2023/01/25 01:20:49;;;;;;;14.57;11.03;;;1.00;86.10;;;;;;4969008;28;20881;-52
2023/01/25 01:23:16;;;;;;;14.60;10.07;;;0.90;90.90;;;;;;4965873;28;20477;-52
2023/01/25 01:25:43;;;;;;;15.83;11.00;;;0.90;88.50;;;;;;4977425;28;21046;-52
2023/01/25 01:28:09;;;;;;;13.00;10.10;;;0.90;86.30;;;;;;4972930;28;20488;-52
2023/01/25 01:30:36;;;;;;;15.03;10.87;;;0.90;84.20;;;;;;4970059;28;20500;-52
2023/01/25 01:33:03;;;;;;;13.47;9.40;;;0.90;81.90;;;;;;4967525;28;20496;-53
2023/01/25 01:35:32;;;;;;;16.40;11.27;;;1.00;82.50;;;;;;4970271;28;20555;-51
2023/01/25 01:37:59;;;;;;;15.87;12.03;;;1.00;81.60;;;;;;4969900;28;20559;-52
2023/01/25 01:40:26;;;;;;;18.50;12.30;;;1.00;81.20;;;;;;4972610;28;20579;-52
2023/01/25 01:42:57;;;;;;;16.17;12.03;;;1.00;83.20;;;;;;4970982;28;20542;-53
2023/01/25 01:45:50;;;;;;;17.40;11.23;;;1.00;85.20;;;;;;4967085;28;20485;-51
2023/01/25 01:48:22;;;;;;;15.63;11.73;;;1.00;85.10;;;;;;4971060;28;20548;-54
2023/01/25 01:50:53;;;;;;;15.93;11.80;;;1.00;86.30;;;;;;4963689;28;20560;-52
2023/01/25 01:53:21;;;;;;;13.50;10.30;;;1.00;89.30;;;;;;4962212;28;20492;-52
2023/01/25 01:55:48;;;;;;;15.67;12.30;;;1.00;86.20;;;;;;4971829;28;20472;-51
2023/01/25 01:58:15;;;;;;;15.00;11.33;;;1.00;86.20;;;;;;4972931;28;20515;-52
2023/01/25 02:00:41;;;;;;;14.17;10.23;;;1.00;82.40;;;;;;4970320;28;20576;-52
2023/01/25 02:03:09;;;;;;;13.37;10.13;;;0.90;87.50;;;;;;4972021;28;20527;-51
2023/01/25 02:05:46;;;;;;;15.00;10.77;;;0.90;90.20;;;;;;4970673;28;20512;-52
2023/01/25 02:08:15;;;;;;;13.10;9.97;;;0.90;88.10;;;;;;4972156;28;20472;-51
2023/01/25 02:10:43;;;;;;;14.17;10.97;;;0.90;83.20;;;;;;4969480;28;21003;-51
2023/01/25 02:13:10;;;;;;;17.63;11.27;;;0.90;87.90;;;;;;4968274;28;20501;-51
2023/01/25 02:15:41;;;;;;;17.00;10.90;;;0.90;87.00;;;;;;4963760;28;20618;-51
2023/01/25 02:18:09;;;;;;;14.63;11.60;;;0.90;82.70;;;;;;4971726;28;20462;-51
2023/01/25 02:20:38;;;;;;;16.63;11.80;;;0.90;82.90;;;;;;4967687;28;20571;-52
2023/01/25 02:23:13;;;;;;;15.90;10.60;;;0.90;83.30;;;;;;4965699;28;20492;-52
2023/01/25 02:25:41;;;;;;;13.17;10.60;;;0.90;83.00;;;;;;4971097;28;20495;-52
2023/01/25 02:28:13;;;;;;;13.03;10.07;;;0.90;79.80;;;;;;4967911;28;21141;-52
2023/01/25 02:30:40;;;;;;;14.70;10.87;;;0.90;80.00;;;;;;4965823;28;20553;-53
2023/01/25 02:33:07;;;;;;;15.17;10.73;;;0.90;74.30;;;;;;4970748;28;20551;-52
2023/01/25 02:35:40;;;;;;;16.63;10.50;;;0.90;73.00;;;;;;4968461;28;20523;-52
2023/01/25 02:38:07;;;;;;;16.30;11.23;;;0.90;71.40;;;;;;4966852;28;20493;-52
2023/01/25 02:40:40;;;;;;;14.83;10.70;;;0.90;72.50;;;;;;4963811;28;20496;-52
2023/01/25 02:43:08;;;;;;;20.03;11.80;;;0.90;71.60;;;;;;4970017;28;20547;-52
2023/01/25 02:45:35;;;;;;;14.17;11.13;;;0.90;65.30;;;;;;4969139;28;21059;-52
2023/01/25 02:48:01;;;;;;;15.87;11.00;;;0.90;71.80;;;;;;4971269;28;21020;-52
2023/01/25 02:50:28;;;;;;;15.33;11.10;;;0.90;70.10;;;;;;4969333;28;20551;-51
2023/01/25 02:52:54;;;;;;;13.83;9.30;;;0.90;72.30;;;;;;4967841;28;20493;-53
2023/01/25 02:55:21;;;;;;;16.90;11.40;;;0.90;68.50;;;;;;4969184;28;20936;-52
2023/01/25 02:57:47;;;;;;;14.57;10.77;;;0.90;65.30;;;;;;4972523;28;20559;-52
2023/01/25 03:00:16;;;;;;;18.97;10.93;;;0.90;63.30;;;;;;4969830;28;20524;-52
2023/01/25 03:02:42;;;;;;;11.60;10.30;;;0.90;64.30;;;;;;4970368;28;20500;-52
2023/01/25 03:05:09;;;;;;;11.77;9.67;;;0.90;63.40;;;;;;4967194;28;20490;-51
2023/01/25 03:07:36;;;;;;;14.73;10.23;;;0.90;62.70;;;;;;4968985;28;20507;-53
2023/01/25 03:10:02;;;;;;;16.43;11.70;;;1.00;58.50;;;;;;4971141;28;20520;-52
2023/01/25 03:12:29;;;;;;;11.77;9.83;;;1.00;64.90;;;;;;4972278;28;20496;-52
2023/01/25 03:14:55;;;;;;;12.10;9.40;;;0.90;67.80;;;;;;4968383;28;20599;-52
2023/01/25 03:17:24;;;;;;;14.10;10.70;;;0.90;68.60;;;;;;4970803;28;20496;-52
2023/01/25 03:19:52;;;;;;;13.23;10.73;;;0.90;65.40;;;;;;4961977;28;21006;-52
2023/01/25 03:22:19;;;;;;;13.70;10.60;;;0.90;61.00;;;;;;4971898;28;20507;-51
2023/01/25 03:24:45;;;;;;;13.90;10.50;;;0.90;61.60;;;;;;4967113;28;20582;-52
2023/01/25 03:27:13;;;;;;;17.00;10.97;;;1.00;60.90;;;;;;4968498;28;20906;-52
2023/01/25 03:29:40;;;;;;;15.10;10.67;;;1.00;63.40;;;;;;4970039;28;20471;-53
2023/01/25 03:32:07;;;;;;;14.57;10.80;;;0.90;64.60;;;;;;4971385;28;20469;-52
2023/01/25 03:34:35;;;;;;;13.97;11.10;;;0.90;62.20;;;;;;4976005;28;20508;-51
2023/01/25 03:37:01;;;;;;;14.63;11.17;;;1.00;60.90;;;;;;4972193;28;20472;-52
2023/01/25 03:39:28;;;;;;;13.50;10.77;;;1.00;62.90;;;;;;4973659;28;20603;-51
2023/01/25 03:41:55;;;;;;;14.17;11.00;;;0.90;66.30;;;;;;4971632;28;20493;-52
2023/01/25 03:44:21;;;;;;;14.37;11.07;;;1.00;64.90;;;;;;4965905;28;20524;-51
2023/01/25 03:46:48;;;;;;;14.10;11.13;;;1.00;69.80;;;;;;4972761;28;20589;-52
2023/01/25 03:49:14;;;;;;;13.80;10.40;;;1.00;68.20;;;;;;4978896;28;20485;-60
2023/01/25 03:51:42;;;;;;;13.83;11.30;;;1.00;67.50;;;;;;4975639;28;20493;-56
2023/01/25 03:54:09;;;;;;;13.30;11.20;;;0.90;70.20;;;;;;4982007;28;20489;-56
2023/01/25 03:56:36;;;;;;;18.40;11.73;;;0.90;71.40;;;;;;4991990;28;20494;-56
2023/01/25 03:59:03;;;;;;;18.63;12.53;;;0.90;73.30;;;;;;4984705;28;20529;-56
2023/01/25 04:01:29;;;;;;;13.93;11.27;;;1.00;70.00;;;;;;4988004;28;20897;-56
2023/01/25 04:03:56;;;;;;;16.37;12.37;;;1.00;67.80;;;;;;4986957;28;20495;-64
2023/01/25 04:06:22;;;;;;;17.43;12.27;;;1.00;67.20;;;;;;4972617;28;20508;-56
2023/01/25 04:08:50;;;;;;;18.53;13.50;;;1.00;71.30;;;;;;4971906;28;20927;-56
2023/01/25 04:11:17;;;;;;;13.50;11.50;;;1.00;68.70;;;;;;4968448;28;20891;-56
2023/01/25 04:13:43;;;;;;;17.80;13.67;;;1.00;69.30;;;;;;4973194;28;20520;-56
2023/01/25 04:16:11;;;;;;;19.77;13.00;;;1.00;70.00;;;;;;4969072;28;20552;-56
2023/01/25 04:18:38;;;;;;;21.63;14.20;;;1.00;67.60;;;;;;4971317;28;20465;-56
2023/01/25 04:21:05;;;;;;;19.07;14.00;;;1.00;68.10;;;;;;4969097;28;20488;-56
2023/01/25 04:23:32;;;;;;;17.77;13.97;;;1.00;70.00;;;;;;4973086;28;20525;-56
2023/01/25 04:26:04;;;;;;;19.40;13.77;;;1.10;70.60;;;;;;4971322;28;20560;-55
2023/01/25 04:28:31;;;;;;;16.53;13.07;;;1.10;68.90;;;;;;4974825;28;20475;-56
2023/01/25 04:30:58;;;;;;;20.40;13.87;;;1.10;66.70;;;;;;4964121;28;20504;-56
2023/01/25 04:33:25;;;;;;;18.23;13.77;;;1.00;67.20;;;;;;4973069;28;20571;-56
2023/01/25 04:35:52;;;;;;;18.70;13.40;;;1.10;64.40;;;;;;4967763;28;20559;-56
2023/01/25 04:38:18;;;;;;;20.27;14.33;;;1.10;63.90;;;;;;4966540;28;20972;-56
2023/01/25 04:40:45;;;;;;;19.83;14.10;;;1.00;66.60;;;;;;4964841;28;20521;-56
2023/01/25 04:43:14;;;;;;;18.47;13.80;;;1.00;66.60;;;;;;4972970;28;20560;-57
2023/01/25 04:45:41;;;;;;;18.60;14.70;;;1.00;69.50;;;;;;4971417;28;20553;-56
2023/01/25 04:48:10;;;;;;;17.70;12.83;;;1.00;67.00;;;;;;4969120;28;21036;-57
2023/01/25 04:50:37;;;;;;;18.20;13.50;;;1.10;69.40;;;;;;4972579;28;20551;-56
2023/01/25 04:53:04;;;;;;;22.37;14.83;;;1.00;70.10;;;;;;4971555;28;20514;-56
2023/01/25 04:55:30;;;;;;;17.40;14.00;;;1.10;72.90;;;;;;4970451;28;20505;-56
2023/01/25 04:57:57;;;;;;;16.50;13.80;;;1.10;75.10;;;;;;4966622;28;20465;-56
2023/01/25 05:00:26;;;;;;;21.00;15.93;;;1.10;77.50;;;;;;4969941;28;20583;-55
2023/01/25 05:02:53;;;;;;;22.67;15.97;;;1.10;80.10;;;;;;4965784;28;20469;-56
2023/01/25 05:05:20;;;;;;;23.23;15.90;;;1.10;82.40;;;;;;4967450;28;20572;-56
2023/01/25 05:07:46;;;;;;;24.87;16.07;;;1.10;81.30;;;;;;4971265;28;20465;-56
2023/01/25 05:10:13;;;;;;;22.03;15.10;;;1.10;80.70;;;;;;4967278;28;20511;-56
2023/01/25 05:12:40;;;;;;;22.60;15.83;;;1.10;74.80;;;;;;4970911;28;20464;-56
2023/01/25 05:15:07;;;;;;;20.73;14.47;;;1.10;72.50;;;;;;4971752;28;20521;-56
2023/01/25 05:17:35;;;;;;;21.83;15.40;;;1.10;71.60;;;;;;4966425;28;20552;-56
2023/01/25 05:20:02;;;;;;;20.80;15.37;;;1.10;70.70;;;;;;4963960;28;20583;-55
2023/01/25 05:22:29;;;;;;;20.97;15.20;;;1.10;71.40;;;;;;4968829;28;20515;-56
2023/01/25 05:24:55;;;;;;;23.40;16.40;;;1.10;71.30;;;;;;4967475;28;20572;-56
2023/01/25 05:27:21;;;;;;;22.03;16.30;;;1.10;73.10;;;;;;4965173;28;20547;-56
2023/01/25 05:29:48;;;;;;;20.00;15.23;;;1.10;75.20;;;;;;4972345;28;20547;-54
2023/01/25 05:32:17;;;;;;;24.73;15.70;;;1.10;74.20;;;;;;4965938;28;20556;-57
2023/01/25 05:34:46;;;;;;;21.60;15.53;;;1.10;72.00;;;;;;4969568;28;20576;-56
2023/01/25 05:37:15;;;;;;;22.97;16.60;;;1.10;75.20;;;;;;4966676;28;20555;-56
2023/01/25 05:39:41;;;;;;;27.03;17.73;;;1.10;74.40;;;;;;4966159;28;20971;-56
2023/01/25 05:42:11;;;;;;;19.63;14.77;;;1.10;76.20;;;;;;4969679;28;20578;-56
2023/01/25 05:44:38;;;;;;;25.97;17.30;;;1.10;76.00;;;;;;4966115;28;20489;-56
2023/01/25 05:47:05;;;;;;;20.83;15.70;;;1.10;75.30;;;;;;4969937;28;21014;-56
2023/01/25 05:49:31;;;;;;;20.63;15.40;;;1.10;74.20;;;;;;4968377;28;20472;-56
2023/01/25 05:51:59;;;;;;;20.33;15.73;;;1.20;67.60;;;;;;4965431;28;21186;-56
2023/01/25 05:54:26;;;;;;;23.60;17.07;;;1.10;70.70;;;;;;4968286;28;21097;-56
2023/01/25 05:56:52;;;;;;;20.67;15.67;;;1.10;70.50;;;;;;4968784;28;20501;-57
2023/01/25 05:59:19;;;;;;;19.30;14.43;;;1.10;73.00;;;;;;4972100;28;20567;-56
2023/01/25 06:01:46;;;;;;;22.87;15.97;;;1.20;70.30;;;;;;4966177;28;20575;-56
2023/01/25 06:04:14;;;;;;;19.80;13.50;;;1.20;73.30;;;;;;4971430;28;20547;-55
2023/01/25 06:06:41;;;;;;;25.13;15.10;;;1.20;72.90;;;;;;4969046;28;20468;-56
2023/01/25 06:09:10;;;;;;;20.80;14.87;;;1.20;71.30;;;;;;4971662;28;20552;-55
2023/01/25 06:11:37;;;;;;;22.20;16.93;;;1.20;68.80;;;;;;4968402;28;20552;-56
2023/01/25 06:14:04;;;;;;;17.40;14.87;;;1.20;68.10;;;;;;4965842;28;20536;-56
2023/01/25 06:16:30;;;;;;;16.30;13.40;;;1.20;67.30;;;;;;4964678;28;20545;-55
2023/01/25 06:18:57;;;;;;;16.83;12.80;;;1.20;72.00;;;;;;4970671;28;20508;-56
2023/01/25 06:21:23;;;;;;;14.93;12.03;;;1.30;74.10;;;;;;4964100;28;20585;-56
2023/01/25 06:23:50;;;;;;;15.07;12.30;;;1.30;75.10;;;;;;4973766;28;20508;-55
2023/01/25 06:26:18;;;;;;;16.27;12.07;;;1.30;76.80;;;;;;4980693;28;20497;-56
2023/01/25 06:28:44;;;;;;;21.87;14.73;;;1.30;78.60;;;;;;4972235;28;20591;-55
2023/01/25 06:31:12;;;;;;;16.90;11.60;;;1.30;77.90;;;;;;4967715;28;20480;-56
2023/01/25 06:33:40;;;;;;;16.87;11.90;;;1.30;77.00;;;;;;4969395;28;20519;-55
2023/01/25 06:36:10;;;;;;;12.97;10.90;;;1.40;75.70;;;;;;4971437;28;20881;-56
2023/01/25 06:38:37;;;;;;;17.70;12.03;;;1.40;79.20;;;;;;4960731;28;20521;-56
2023/01/25 06:41:06;;;;;;;16.67;10.83;;;1.40;83.00;;;;;;4969771;28;20728;-57
2023/01/25 06:43:35;;;;;;;14.23;11.70;;;1.40;84.10;;;;;;4968598;28;20508;-55
2023/01/25 06:46:03;;;;;;;13.27;10.90;;;1.40;79.80;;;;;;4966943;28;20508;-56
2023/01/25 06:48:30;;;;;;;15.40;11.83;;;1.40;83.00;;;;;;4967565;28;21045;-56
2023/01/25 06:50:59;;;;;;;13.90;11.53;;;1.40;82.60;;;;;;4970596;28;21162;-56
2023/01/25 06:53:27;;;;;;;15.17;12.43;;;1.40;81.30;;;;;;4967184;28;20520;-55
2023/01/25 06:55:58;;;;;;;14.67;11.53;;;1.40;80.80;;;;;;4969755;28;20468;-56
2023/01/25 06:58:25;;;;;;;17.40;11.20;;;1.40;82.10;;;;;;4969027;28;20556;-54
2023/01/25 07:00:53;;;;;;;12.60;10.20;;;1.50;82.60;;;;;;4967576;28;20539;-55
2023/01/25 07:03:20;;;;;;;12.17;10.20;;;1.40;80.80;;;;;;4969754;28;20930;-55
2023/01/25 07:05:48;;;;;;;14.10;9.80;;;1.40;82.10;;;;;;4971841;28;20502;-55
2023/01/25 07:08:14;;;;;;;9.80;8.80;;;1.40;82.90;;;;;;4973858;28;20634;-55
2023/01/25 07:10:41;;;;;;;12.43;10.23;;;1.40;81.10;;;;;;4983503;28;20970;-55
2023/01/25 07:13:07;;;;;;;16.77;10.53;;;1.40;81.00;;;;;;4975472;28;20632;-55
2023/01/25 07:15:34;;;;;;;15.73;10.97;;;1.40;83.50;;;;;;4973922;28;20624;-54
2023/01/25 07:18:02;;;;;;;15.47;10.90;;;1.50;83.70;;;;;;4971727;28;20579;-54
2023/01/25 07:20:28;;;;;;;12.87;11.03;;;1.40;84.60;;;;;;4974531;28;21040;-55
2023/01/25 07:22:55;;;;;;;15.60;10.60;;;1.50;83.40;;;;;;4977337;28;20954;-56
2023/01/25 07:25:21;;;;;;;16.87;10.70;;;1.50;83.90;;;;;;4973261;28;20572;-55
2023/01/25 07:27:48;;;;;;;12.50;10.70;;;1.40;83.20;;;;;;4975777;28;20516;-55
2023/01/25 07:30:16;;;;;;;14.60;10.37;;;1.40;81.20;;;;;;4970265;28;20556;-55
2023/01/25 07:32:43;;;;;;;12.80;10.33;;;1.50;80.10;;;;;;4969302;28;20495;-55
2023/01/25 07:35:11;;;;;;;13.73;10.37;;;1.40;86.00;;;;;;4968047;28;20586;-55
2023/01/25 07:37:37;;;;;;;15.40;9.90;;;1.40;86.30;;;;;;4971901;28;20508;-56
2023/01/25 07:40:05;;;;;;;16.20;10.83;;;1.40;87.60;;;;;;4967773;28;20594;-56
2023/01/25 07:42:31;;;;;;;15.27;9.53;;;1.40;86.60;;;;;;4972702;28;20500;-56
2023/01/25 07:44:58;;;;;;;13.63;11.07;;;1.40;85.50;;;;;;4970400;28;20484;-56
2023/01/25 07:47:25;;;;;;;12.33;9.60;;;1.50;85.80;;;;;;4969791;28;20516;-56
2023/01/25 07:49:51;;;;;;;18.27;11.00;;;1.40;89.60;;;;;;4977258;28;20488;-57
2023/01/25 07:52:19;;;;;;;14.20;10.60;;;1.40;89.60;;;;;;4973629;28;20544;-56
2023/01/25 07:54:48;;;;;;;13.67;10.87;;;1.50;86.40;;;;;;5001458;23;20643;-51
2023/01/25 07:57:15;;;;;;;17.23;11.70;;;1.50;84.70;;;;;;4951859;28;20549;-52
2023/01/25 07:59:41;;;;;;;15.30;12.30;;;1.50;84.20;;;;;;4957906;28;20497;-52
2023/01/25 08:02:10;;;;;;;16.43;12.43;;;1.50;80.40;;;;;;4954582;28;20533;-52
2023/01/25 08:04:37;;;;;;;16.43;12.30;;;1.50;78.50;;;;;;4954729;28;20488;-52
2023/01/25 08:07:04;;;;;;;14.13;11.80;;;1.50;80.00;;;;;;4955487;28;20524;-53
2023/01/25 08:09:32;;;;;;;13.77;11.53;;;1.50;77.70;;;;;;4955141;28;20560;-53
2023/01/25 08:11:58;;;;;;;14.40;11.00;;;1.50;76.10;;;;;;4950538;28;20542;-52
2023/01/25 08:14:25;;;;;;;23.30;11.37;;;1.50;79.80;;;;;;4955912;29;20489;-52
2023/01/25 08:16:52;;;;;;;15.43;11.87;;;1.50;78.20;;;;;;4950212;28;20573;-51
2023/01/25 08:19:20;;;;;;;16.43;12.00;;;1.50;81.20;;;;;;4946828;28;20592;-51
2023/01/25 08:21:47;;;;;;;14.70;11.27;;;1.50;77.70;;;;;;4946302;28;20581;-52
2023/01/25 08:24:14;;;;;;;14.67;11.20;;;1.50;82.20;;;;;;4950836;29;21018;-51
2023/01/25 08:26:42;;;;;;;13.27;11.07;;;1.50;80.00;;;;;;4941173;28;20556;-52
2023/01/25 08:29:10;;;;;;;17.03;12.07;;;1.60;79.30;;;;;;4946593;28;20472;-51
2023/01/25 08:31:39;;;;;;;15.57;11.47;;;1.60;83.50;;;;;;4943759;28;20545;-52
2023/01/25 08:34:06;;;;;;;15.47;10.80;;;1.50;83.00;;;;;;4942257;28;21027;-52
2023/01/25 08:36:33;;;;;;;15.97;11.30;;;1.50;81.10;;;;;;4949980;28;20470;-50
2023/01/25 08:39:02;;;;;;;14.63;10.53;;;1.50;83.10;;;;;;4951250;28;20557;-54
2023/01/25 08:41:30;;;;;;;14.70;11.87;;;1.60;80.70;;;;;;4951876;28;20513;-51
2023/01/25 08:43:58;;;;;;;16.30;10.57;;;1.60;80.20;;;;;;4949098;28;20961;-51
2023/01/25 08:46:27;;;;;;;13.10;10.00;;;1.50;81.30;;;;;;4950973;28;20494;-53
2023/01/25 08:48:54;;;;;;;13.33;11.20;;;1.50;75.80;;;;;;4946817;28;20587;-51
2023/01/25 08:51:21;;;;;;;14.40;10.50;;;1.50;75.10;;;;;;4944170;28;20560;-51
2023/01/25 08:53:48;;;;;;;14.90;11.20;;;1.60;74.20;;;;;;4950989;28;20466;-52
2023/01/25 08:56:16;;;;;;;13.23;10.60;;;1.60;74.40;;;;;;4949698;28;20528;-51
2023/01/25 08:58:45;;;;;;;13.77;10.23;;;1.70;76.10;;;;;;4948520;28;20461;-52
2023/01/25 09:01:15;;;;;;;9.47;8.47;;;1.70;78.40;;;;;;4940282;28;20529;-52
2023/01/25 09:03:44;;;;;;;13.40;9.43;;;1.60;87.70;;;;;;4948749;28;20494;-53
2023/01/25 09:06:11;;;;;;;10.17;9.07;;;1.60;87.80;;;;;;4954797;28;20573;-52
2023/01/25 09:08:39;;;;;;;11.03;9.00;;;1.60;87.70;;;;;;4957723;28;20549;-53
2023/01/25 09:11:07;;;;;;;11.93;9.67;;;1.60;86.70;;;;;;4949187;28;20465;-53
2023/01/25 09:13:34;;;;;;;13.47;9.73;;;1.60;84.30;;;;;;4947737;28;21015;-53
2023/01/25 09:16:01;;;;;;;19.90;9.67;;;1.70;80.20;;;;;;4947487;28;21070;-53
2023/01/25 09:18:30;;;;;;;13.87;10.80;;;1.70;79.20;;;;;;4949806;28;20459;-52
2023/01/25 09:20:57;;;;;;;13.40;10.13;;;1.70;79.20;;;;;;4946175;28;20573;-53
2023/01/25 09:23:24;;;;;;;12.00;10.00;;;1.70;80.90;;;;;;4943982;28;20561;-53
2023/01/25 09:25:56;;;;;;;13.07;9.50;;;1.70;82.90;;;;;;4945755;28;20576;-53
2023/01/25 09:28:23;;;;;;;14.03;10.63;;;1.70;83.80;;;;;;4941491;28;20473;-52
2023/01/25 09:30:54;;;;;;;14.90;10.70;;;1.70;82.10;;;;;;4944026;29;20553;-52
2023/01/25 09:33:24;;;;;;;15.20;10.70;;;1.70;76.80;;;;;;4940744;28;20553;-53
2023/01/25 09:35:52;;;;;;;21.83;11.10;;;1.70;73.90;;;;;;4951994;28;20624;-53
2023/01/25 09:38:19;;;;;;;13.53;10.00;;;1.60;75.90;;;;;;4950911;28;20553;-52
2023/01/25 09:41:14;;;;;;;11.80;8.97;;;1.60;77.50;;;;;;4942204;28;20564;-52
2023/01/25 09:43:58;;;;;;;12.77;10.67;;;1.60;77.60;;;;;;4945954;29;20458;-52
2023/01/25 09:46:33;;;;;;;10.40;9.40;;;1.60;77.70;;;;;;4943985;28;20480;-52
2023/01/25 09:49:07;;;;;;;11.13;9.47;;;1.60;77.00;;;;;;4879769;28;56384;-53
2023/01/25 09:51:52;;;;;;;11.93;9.70;;;1.50;78.40;;;;;;4927969;29;20554;-52
2023/01/25 09:54:20;;;;;;;12.13;9.53;;;1.60;79.40;;;;;;4929681;29;20545;-55
2023/01/25 09:56:50;;;;;;;14.37;10.43;;;1.50;77.20;;;;;;4931052;29;20466;-55
2023/01/25 09:59:22;;;;;;;16.53;10.40;;;1.60;72.60;;;;;;4933168;29;20486;-55
2023/01/25 10:01:53;;;;;;;14.40;10.57;;;1.50;75.30;;;;;;4932322;29;21037;-56
2023/01/25 10:04:22;;;;;;;16.13;9.97;;;1.50;76.80;;;;;;4929821;29;20518;-55
2023/01/25 10:06:54;;;;;;;15.90;9.87;;;1.50;74.80;;;;;;4933261;29;20557;-56
2023/01/25 10:09:32;;;;;;;13.83;10.77;;;1.50;65.80;;;;;;4933440;29;20522;-55
2023/01/25 10:12:03;;;;;;;14.77;10.80;;;1.50;66.30;;;;;;4930351;29;20494;-56
2023/01/25 10:14:34;;;;;;;16.00;11.63;;;1.50;70.00;;;;;;4925665;29;20606;-54
2023/01/25 10:17:06;;;;;;;13.30;10.03;;;1.50;75.90;;;;;;4927839;29;20660;-56
2023/01/25 10:19:47;;;;;;;16.70;11.63;;;1.50;70.20;;;;;;4930307;29;20466;-55
2023/01/25 10:22:18;;;;;;;15.43;10.83;;;1.50;72.70;;;;;;4930159;29;21095;-54
2023/01/25 10:25:10;;;;;;;15.77;11.00;;;1.50;69.60;;;;;;4929867;29;20911;-56
2023/01/25 10:27:41;;;;;;;14.60;10.43;;;1.50;71.40;;;;;;4925564;29;20989;-56
2023/01/25 10:30:23;;;;;;;17.60;12.07;;;1.50;68.40;;;;;;4931496;29;20466;-57
2023/01/25 10:32:52;;;;;;;17.33;11.13;;;1.50;68.60;;;;;;4931757;29;20466;-58
2023/01/25 10:35:23;;;;;;;14.20;10.47;;;1.50;67.20;;;;;;4929535;29;20999;-56
2023/01/25 10:37:51;;;;;;;17.60;11.10;;;1.50;66.50;;;;;;4932498;29;20473;-55
2023/01/25 10:40:23;;;;;;;15.17;11.80;;;1.50;64.90;;;;;;4930852;29;20466;-55
2023/01/25 10:42:56;;;;;;;13.53;10.43;;;1.50;63.00;;;;;;4930573;29;20854;-55
2023/01/25 10:45:23;;;;;;;16.57;11.80;;;1.50;62.80;;;;;;4933483;29;20533;-55
2023/01/25 10:47:56;;;;;;;17.80;11.10;;;1.40;60.90;;;;;;4933064;29;20502;-57
2023/01/25 10:50:42;;;;;;;15.17;11.77;;;1.40;59.90;;;;;;4931926;29;20547;-55
2023/01/25 10:53:24;;;;;;;15.50;12.37;;;1.40;58.00;;;;;;4927318;29;20455;-54
2023/01/25 10:56:15;;;;;;;16.43;11.23;;;1.40;55.50;;;;;;4931342;29;20549;-56
2023/01/25 10:58:44;;;;;;;17.70;13.80;;;1.50;53.90;;;;;;4928336;29;20977;-58
2023/01/25 11:01:14;;;;;;;20.23;14.50;;;1.50;55.40;;;;;;4931968;29;21054;-55
2023/01/25 11:03:43;;;;;;;25.27;12.70;;;1.50;53.90;;;;;;4933189;29;20896;-54
2023/01/25 11:06:10;;;;;;;15.10;11.70;;;1.50;53.50;;;;;;4932796;29;20482;-57
2023/01/25 11:08:40;;;;;;;21.40;13.13;;;1.50;51.80;;;;;;4933838;29;20898;-56
2023/01/25 11:11:34;;;;;;;18.73;13.40;;;1.50;47.30;;;;;;4933354;29;20466;-56
2023/01/25 11:14:01;;;;;;;18.40;12.50;;;1.50;48.80;;;;;;4922219;29;20542;-56
2023/01/25 11:16:33;;;;;;;23.03;13.93;;;1.50;44.90;;;;;;4932389;29;20506;-55
2023/01/25 11:19:02;;;;;;;21.33;13.60;;;1.50;46.20;;;;;;4931232;29;21052;-56
2023/01/25 11:21:30;;;;;;;20.60;14.27;;;1.50;46.70;;;;;;4930380;29;20460;-57
2023/01/25 11:24:18;;;;;;;16.20;11.83;;;1.40;48.50;;;;;;4930592;29;20566;-56
2023/01/25 11:26:44;;;;;;;16.27;12.63;;;1.40;49.50;;;;;;4930395;29;20514;-56
2023/01/25 11:29:14;;;;;;;17.03;12.17;;;1.30;48.50;;;;;;4931551;29;20478;-56
2023/01/25 11:31:44;;;;;;;22.07;14.10;;;1.30;44.90;;;;;;4930461;29;20562;-56
2023/01/25 11:34:12;;;;;;;19.00;13.50;;;1.20;44.90;;;;;;4930004;29;20475;-56
2023/01/25 11:36:59;;;;;;;22.17;13.60;;;1.30;37.20;;;;;;4931230;29;20513;-56
2023/01/25 11:39:39;;;;;;;21.27;14.00;;;1.20;37.00;;;;;;4932056;29;21164;-55
2023/01/25 11:42:23;;;;;;;20.20;13.07;;;1.30;36.50;;;;;;4932041;29;21089;-57
2023/01/25 11:45:16;;;;;;;25.10;13.40;;;1.10;37.50;;;;;;4931929;29;20920;-56
2023/01/25 11:47:56;;;;;;;21.97;15.00;;;1.20;34.10;;;;;;4929768;29;20525;-56
2023/01/25 11:50:31;;;;;;;25.10;13.60;;;1.10;37.20;;;;;;4929937;29;20517;-55
2023/01/25 11:53:18;;;;;;;20.73;14.77;;;1.10;33.50;;;;;;4934044;29;20530;-57
2023/01/25 11:55:54;;;;;;;22.00;15.10;;;1.20;29.50;;;;;;4936419;29;20514;-53
2023/01/25 11:58:40;;;;;;;20.60;13.53;;;1.20;28.10;;;;;;4936686;29;20496;-56
2023/01/25 12:01:15;;;;;;;19.70;14.23;;;1.10;30.00;;;;;;4937390;29;20486;-56
2023/01/25 12:04:16;;;;;;;20.07;14.90;;;1.20;28.80;;;;;;4933434;29;20576;-56
2023/01/25 12:06:57;;;;;;;20.70;13.57;;;1.20;26.10;;;;;;4934403;29;20513;-56
2023/01/25 12:09:42;;;;;;;24.27;15.50;;;1.10;30.80;;;;;;4916780;29;20534;-55
2023/01/25 12:12:18;;;;;;;22.57;14.40;;;1.10;26.60;;;;;;4916619;29;20846;-55
2023/01/25 12:15:03;;;;;;;22.17;14.27;;;1.10;26.90;;;;;;4915980;29;20498;-57
2023/01/25 12:17:49;;;;;;;19.77;13.33;;;1.10;28.20;;;;;;4916534;29;20448;-55
2023/01/25 12:20:35;;;;;;;19.17;14.30;;;1.10;27.60;;;;;;4927841;29;20552;-54
2023/01/25 12:23:26;;;;;;;20.73;14.77;;;1.10;27.10;;;;;;4934531;29;20522;-56
2023/01/25 12:26:05;;;;;;;27.37;15.30;;;1.10;27.90;;;;;;4932426;29;20981;-55
2023/01/25 12:28:37;;;;;;;23.13;14.43;;;1.00;29.80;;;;;;4935082;29;21207;-56
2023/01/25 12:31:12;;;;;;;22.87;14.87;;;1.10;26.90;;;;;;4935039;29;20964;-55
2023/01/25 12:33:43;;;;;;;26.17;15.03;;;1.00;25.20;;;;;;4933687;29;20500;-55
2023/01/25 12:36:14;;;;;;;24.13;15.50;;;1.00;24.20;;;;;;4932710;29;20569;-54
2023/01/25 12:38:48;;;;;;;34.17;15.77;;;1.00;24.70;;;;;;4936267;29;20906;-55
2023/01/25 12:41:25;;;;;;;26.53;14.20;;;1.00;23.90;;;;;;4936018;29;20485;-54
2023/01/25 12:43:56;;;;;;;20.80;15.57;;;1.00;22.40;;;;;;4936155;29;20573;-54
2023/01/25 12:46:28;;;;;;;24.30;15.80;;;1.00;20.60;;;;;;4936525;29;20584;-55
2023/01/25 12:48:59;;;;;;;25.60;16.40;;;1.10;21.30;;;;;;4935177;29;20522;-55
2023/01/25 12:51:33;;;;;;;26.30;16.83;;;0.90;22.10;;;;;;4934869;29;20508;-55